sensor_id;sensor_type;location;lat;lon;timestamp;P1;durP1;ratioP1;P2;durP2;ratioP2
5491;SDS011;2768;53.540;10.224;2023-06-14T00:05:14;2.57;;;2.30;;
5491;SDS011;2768;53.540;10.224;2023-06-14T00:11:07;5.13;;;2.67;;
5491;SDS011;2768;53.540;10.224;2023-06-14T00:17:03;3.10;;;2.90;;
5491;SDS011;2768;53.540;10.224;2023-06-14T00:22:58;6.17;;;2.60;;
5491;SDS011;2768;53.540;10.224;2023-06-14T00:28:52;3.87;;;3.00;;
5491;SDS011;2768;53.540;10.224;2023-06-14T00:34:47;3.23;;;2.77;;
5491;SDS011;2768;53.540;10.224;2023-06-14T00:40:41;2.70;;;2.27;;
5491;SDS011;2768;53.540;10.224;2023-06-14T00:46:37;2.73;;;2.43;;
5491;SDS011;2768;53.540;10.224;2023-06-14T00:52:32;6.13;;;2.50;;
5491;SDS011;2768;53.540;10.224;2023-06-14T00:58:26;3.50;;;2.43;;
5491;SDS011;2768;53.540;10.224;2023-06-14T01:04:20;3.20;;;2.70;;
5491;SDS011;2768;53.540;10.224;2023-06-14T01:10:19;4.77;;;2.60;;
5491;SDS011;2768;53.540;10.224;2023-06-14T01:16:24;3.40;;;2.33;;
5491;SDS011;2768;53.540;10.224;2023-06-14T01:22:18;4.77;;;2.40;;
5491;SDS011;2768;53.540;10.224;2023-06-14T01:28:13;2.70;;;2.50;;
5491;SDS011;2768;53.540;10.224;2023-06-14T01:34:08;5.17;;;2.70;;
5491;SDS011;2768;53.540;10.224;2023-06-14T01:40:02;3.93;;;2.77;;
5491;SDS011;2768;53.540;10.224;2023-06-14T01:46:00;2.90;;;2.60;;
5491;SDS011;2768;53.540;10.224;2023-06-14T01:51:55;4.20;;;2.93;;
5491;SDS011;2768;53.540;10.224;2023-06-14T01:57:49;4.73;;;2.87;;
5491;SDS011;2768;53.540;10.224;2023-06-14T02:03:43;3.17;;;2.87;;
5491;SDS011;2768;53.540;10.224;2023-06-14T02:09:40;5.13;;;3.17;;
5491;SDS011;2768;53.540;10.224;2023-06-14T02:15:33;4.57;;;2.90;;
5491;SDS011;2768;53.540;10.224;2023-06-14T02:21:28;3.10;;;2.80;;
5491;SDS011;2768;53.540;10.224;2023-06-14T02:27:21;4.90;;;2.90;;
5491;SDS011;2768;53.540;10.224;2023-06-14T02:33:15;2.70;;;2.50;;
5491;SDS011;2768;53.540;10.224;2023-06-14T02:39:10;5.40;;;2.93;;
5491;SDS011;2768;53.540;10.224;2023-06-14T02:45:04;5.80;;;3.50;;
5491;SDS011;2768;53.540;10.224;2023-06-14T02:50:58;5.53;;;2.63;;
5491;SDS011;2768;53.540;10.224;2023-06-14T02:56:53;4.27;;;3.23;;
5491;SDS011;2768;53.540;10.224;2023-06-14T03:02:46;6.57;;;2.90;;
5491;SDS011;2768;53.540;10.224;2023-06-14T03:08:40;4.57;;;3.23;;
5491;SDS011;2768;53.540;10.224;2023-06-14T03:14:39;4.10;;;2.90;;
5491;SDS011;2768;53.540;10.224;2023-06-14T03:20:33;5.83;;;3.63;;
5491;SDS011;2768;53.540;10.224;2023-06-14T03:26:27;6.40;;;3.00;;
5491;SDS011;2768;53.540;10.224;2023-06-14T03:32:25;3.67;;;3.13;;
5491;SDS011;2768;53.540;10.224;2023-06-14T03:38:19;5.93;;;2.87;;
5491;SDS011;2768;53.540;10.224;2023-06-14T03:44:14;6.03;;;3.43;;
5491;SDS011;2768;53.540;10.224;2023-06-14T03:50:11;6.30;;;3.60;;
5491;SDS011;2768;53.540;10.224;2023-06-14T03:56:05;6.63;;;3.60;;
5491;SDS011;2768;53.540;10.224;2023-06-14T04:02:04;5.20;;;3.40;;
5491;SDS011;2768;53.540;10.224;2023-06-14T04:08:00;5.77;;;4.10;;
5491;SDS011;2768;53.540;10.224;2023-06-14T04:13:55;6.37;;;3.43;;
5491;SDS011;2768;53.540;10.224;2023-06-14T04:19:49;6.57;;;3.40;;
5491;SDS011;2768;53.540;10.224;2023-06-14T04:25:44;5.10;;;3.60;;
5491;SDS011;2768;53.540;10.224;2023-06-14T04:31:40;5.80;;;4.17;;
5491;SDS011;2768;53.540;10.224;2023-06-14T04:37:34;5.50;;;3.90;;
5491;SDS011;2768;53.540;10.224;2023-06-14T04:43:34;5.20;;;3.60;;
5491;SDS011;2768;53.540;10.224;2023-06-14T04:49:31;8.63;;;3.77;;
5491;SDS011;2768;53.540;10.224;2023-06-14T04:55:25;5.13;;;3.20;;
5491;SDS011;2768;53.540;10.224;2023-06-14T05:01:20;4.30;;;3.47;;
5491;SDS011;2768;53.540;10.224;2023-06-14T05:07:14;5.27;;;3.50;;
5491;SDS011;2768;53.540;10.224;2023-06-14T05:13:08;9.93;;;4.43;;
5491;SDS011;2768;53.540;10.224;2023-06-14T05:19:03;6.47;;;4.13;;
5491;SDS011;2768;53.540;10.224;2023-06-14T05:24:56;8.90;;;3.40;;
5491;SDS011;2768;53.540;10.224;2023-06-14T05:30:49;8.63;;;3.47;;
5491;SDS011;2768;53.540;10.224;2023-06-14T05:36:44;5.67;;;3.50;;
5491;SDS011;2768;53.540;10.224;2023-06-14T05:42:38;4.33;;;3.70;;
5491;SDS011;2768;53.540;10.224;2023-06-14T05:48:31;6.27;;;3.20;;
5491;SDS011;2768;53.540;10.224;2023-06-14T05:54:25;8.07;;;3.23;;
5491;SDS011;2768;53.540;10.224;2023-06-14T06:00:19;5.23;;;3.90;;
5491;SDS011;2768;53.540;10.224;2023-06-14T06:06:12;8.37;;;4.47;;
5491;SDS011;2768;53.540;10.224;2023-06-14T06:12:08;4.97;;;4.10;;
5491;SDS011;2768;53.540;10.224;2023-06-14T06:18:01;5.50;;;3.40;;
5491;SDS011;2768;53.540;10.224;2023-06-14T06:23:54;3.53;;;2.90;;
5491;SDS011;2768;53.540;10.224;2023-06-14T06:29:49;3.47;;;3.17;;
5491;SDS011;2768;53.540;10.224;2023-06-14T06:35:43;4.37;;;2.77;;
5491;SDS011;2768;53.540;10.224;2023-06-14T06:41:37;3.30;;;2.87;;
5491;SDS011;2768;53.540;10.224;2023-06-14T06:47:32;2.63;;;2.43;;
5491;SDS011;2768;53.540;10.224;2023-06-14T06:53:26;3.33;;;2.90;;
5491;SDS011;2768;53.540;10.224;2023-06-14T06:59:32;3.70;;;2.20;;
5491;SDS011;2768;53.540;10.224;2023-06-14T07:05:26;2.60;;;2.20;;
5491;SDS011;2768;53.540;10.224;2023-06-14T07:11:20;2.30;;;2.10;;
5491;SDS011;2768;53.540;10.224;2023-06-14T07:17:13;4.47;;;3.67;;
5491;SDS011;2768;53.540;10.224;2023-06-14T07:23:08;3.03;;;2.80;;
5491;SDS011;2768;53.540;10.224;2023-06-14T07:29:01;4.40;;;2.10;;
5491;SDS011;2768;53.540;10.224;2023-06-14T07:34:55;2.40;;;2.20;;
5491;SDS011;2768;53.540;10.224;2023-06-14T07:40:49;2.50;;;2.30;;
5491;SDS011;2768;53.540;10.224;2023-06-14T07:46:42;2.87;;;2.67;;
5491;SDS011;2768;53.540;10.224;2023-06-14T07:52:37;2.90;;;2.70;;
5491;SDS011;2768;53.540;10.224;2023-06-14T07:58:32;4.07;;;2.40;;
5491;SDS011;2768;53.540;10.224;2023-06-14T08:04:25;2.80;;;2.03;;
5491;SDS011;2768;53.540;10.224;2023-06-14T08:10:18;3.00;;;2.70;;
5491;SDS011;2768;53.540;10.224;2023-06-14T08:16:13;4.77;;;2.10;;
5491;SDS011;2768;53.540;10.224;2023-06-14T08:22:07;2.80;;;2.47;;
5491;SDS011;2768;53.540;10.224;2023-06-14T08:28:03;3.90;;;2.70;;
5491;SDS011;2768;53.540;10.224;2023-06-14T08:33:58;5.20;;;2.67;;
5491;SDS011;2768;53.540;10.224;2023-06-14T08:39:51;2.33;;;2.20;;
5491;SDS011;2768;53.540;10.224;2023-06-14T08:45:44;4.60;;;3.10;;
5491;SDS011;2768;53.540;10.224;2023-06-14T08:51:43;6.50;;;2.43;;
5491;SDS011;2768;53.540;10.224;2023-06-14T08:57:39;2.67;;;2.40;;
5491;SDS011;2768;53.540;10.224;2023-06-14T09:03:33;3.37;;;2.30;;
5491;SDS011;2768;53.540;10.224;2023-06-14T09:09:27;3.60;;;2.60;;
5491;SDS011;2768;53.540;10.224;2023-06-14T09:15:20;8.90;;;2.70;;
5491;SDS011;2768;53.540;10.224;2023-06-14T09:21:15;9.10;;;2.70;;
5491;SDS011;2768;53.540;10.224;2023-06-14T09:27:14;3.87;;;2.87;;
5491;SDS011;2768;53.540;10.224;2023-06-14T09:33:08;6.97;;;2.73;;
5491;SDS011;2768;53.540;10.224;2023-06-14T09:39:02;5.23;;;2.73;;
5491;SDS011;2768;53.540;10.224;2023-06-14T09:44:59;3.40;;;2.87;;
5491;SDS011;2768;53.540;10.224;2023-06-14T09:50:52;3.13;;;2.83;;
5491;SDS011;2768;53.540;10.224;2023-06-14T09:56:50;4.27;;;3.03;;
5491;SDS011;2768;53.540;10.224;2023-06-14T10:02:46;5.97;;;2.70;;
5491;SDS011;2768;53.540;10.224;2023-06-14T10:08:44;3.20;;;2.80;;
5491;SDS011;2768;53.540;10.224;2023-06-14T10:14:38;3.83;;;2.87;;
5491;SDS011;2768;53.540;10.224;2023-06-14T10:20:34;10.23;;;2.83;;
5491;SDS011;2768;53.540;10.224;2023-06-14T10:26:34;3.83;;;2.93;;
5491;SDS011;2768;53.540;10.224;2023-06-14T10:32:27;3.27;;;3.00;;
5491;SDS011;2768;53.540;10.224;2023-06-14T10:38:21;7.77;;;3.10;;
5491;SDS011;2768;53.540;10.224;2023-06-14T10:44:33;4.00;;;2.83;;
5491;SDS011;2768;53.540;10.224;2023-06-14T10:50:33;4.07;;;2.90;;
5491;SDS011;2768;53.540;10.224;2023-06-14T10:56:28;3.60;;;2.50;;
5491;SDS011;2768;53.540;10.224;2023-06-14T11:02:29;4.53;;;2.93;;
5491;SDS011;2768;53.540;10.224;2023-06-14T11:15:29;3.23;;;2.60;;
5491;SDS011;2768;53.540;10.224;2023-06-14T11:21:23;3.80;;;2.50;;
5491;SDS011;2768;53.540;10.224;2023-06-14T11:27:23;6.00;;;3.00;;
5491;SDS011;2768;53.540;10.224;2023-06-14T11:33:21;4.07;;;3.20;;
5491;SDS011;2768;53.540;10.224;2023-06-14T11:39:16;6.50;;;2.47;;
5491;SDS011;2768;53.540;10.224;2023-06-14T11:45:10;3.53;;;3.03;;
5491;SDS011;2768;53.540;10.224;2023-06-14T11:51:05;5.20;;;2.80;;
5491;SDS011;2768;53.540;10.224;2023-06-14T11:56:58;6.40;;;3.00;;
5491;SDS011;2768;53.540;10.224;2023-06-14T12:02:52;4.63;;;2.50;;
5491;SDS011;2768;53.540;10.224;2023-06-14T12:08:49;7.77;;;2.87;;
5491;SDS011;2768;53.540;10.224;2023-06-14T12:14:42;5.67;;;3.00;;
5491;SDS011;2768;53.540;10.224;2023-06-14T12:20:35;5.53;;;3.17;;
5491;SDS011;2768;53.540;10.224;2023-06-14T12:26:30;5.10;;;2.53;;
5491;SDS011;2768;53.540;10.224;2023-06-14T12:32:23;6.13;;;2.80;;
5491;SDS011;2768;53.540;10.224;2023-06-14T12:38:17;5.10;;;2.57;;
5491;SDS011;2768;53.540;10.224;2023-06-14T12:44:12;3.70;;;2.87;;
5491;SDS011;2768;53.540;10.224;2023-06-14T12:50:06;2.70;;;2.10;;
5491;SDS011;2768;53.540;10.224;2023-06-14T12:56:00;2.67;;;2.47;;
5491;SDS011;2768;53.540;10.224;2023-06-14T13:01:54;5.70;;;3.00;;
5491;SDS011;2768;53.540;10.224;2023-06-14T13:07:47;3.43;;;2.70;;
5491;SDS011;2768;53.540;10.224;2023-06-14T13:13:41;4.57;;;2.50;;
5491;SDS011;2768;53.540;10.224;2023-06-14T13:19:35;3.17;;;2.87;;
5491;SDS011;2768;53.540;10.224;2023-06-14T13:25:28;3.53;;;2.40;;
5491;SDS011;2768;53.540;10.224;2023-06-14T13:31:21;2.13;;;2.03;;
5491;SDS011;2768;53.540;10.224;2023-06-14T13:37:16;6.17;;;2.40;;
5491;SDS011;2768;53.540;10.224;2023-06-14T13:43:09;3.83;;;2.00;;
5491;SDS011;2768;53.540;10.224;2023-06-14T13:49:02;3.00;;;2.53;;
5491;SDS011;2768;53.540;10.224;2023-06-14T13:55:15;5.03;;;2.60;;
5491;SDS011;2768;53.540;10.224;2023-06-14T14:01:26;3.80;;;2.50;;
5491;SDS011;2768;53.540;10.224;2023-06-14T14:07:37;5.83;;;2.10;;
5491;SDS011;2768;53.540;10.224;2023-06-14T14:13:50;3.67;;;2.17;;
5491;SDS011;2768;53.540;10.224;2023-06-14T14:20:01;6.57;;;2.50;;
5491;SDS011;2768;53.540;10.224;2023-06-14T14:26:12;3.37;;;2.47;;
5491;SDS011;2768;53.540;10.224;2023-06-14T14:32:24;4.00;;;2.23;;
5491;SDS011;2768;53.540;10.224;2023-06-14T14:38:18;6.43;;;2.53;;
5491;SDS011;2768;53.540;10.224;2023-06-14T14:44:11;2.83;;;2.20;;
5491;SDS011;2768;53.540;10.224;2023-06-14T14:50:06;3.23;;;2.60;;
5491;SDS011;2768;53.540;10.224;2023-06-14T14:56:00;3.40;;;2.50;;
5491;SDS011;2768;53.540;10.224;2023-06-14T15:01:57;3.37;;;2.53;;
5491;SDS011;2768;53.540;10.224;2023-06-14T15:07:52;4.53;;;2.50;;
5491;SDS011;2768;53.540;10.224;2023-06-14T15:13:46;4.43;;;2.27;;
5491;SDS011;2768;53.540;10.224;2023-06-14T15:19:40;4.43;;;2.43;;
5491;SDS011;2768;53.540;10.224;2023-06-14T15:25:35;4.37;;;2.17;;
5491;SDS011;2768;53.540;10.224;2023-06-14T15:31:28;3.80;;;2.80;;
5491;SDS011;2768;53.540;10.224;2023-06-14T15:37:21;4.93;;;2.13;;
5491;SDS011;2768;53.540;10.224;2023-06-14T15:43:16;4.43;;;2.30;;
5491;SDS011;2768;53.540;10.224;2023-06-14T15:49:09;3.10;;;2.60;;
5491;SDS011;2768;53.540;10.224;2023-06-14T15:55:03;2.90;;;2.60;;
5491;SDS011;2768;53.540;10.224;2023-06-14T16:00:58;4.60;;;2.70;;
5491;SDS011;2768;53.540;10.224;2023-06-14T16:06:51;3.10;;;2.30;;
5491;SDS011;2768;53.540;10.224;2023-06-14T16:12:44;3.63;;;2.17;;
5491;SDS011;2768;53.540;10.224;2023-06-14T16:18:38;4.53;;;2.50;;
5491;SDS011;2768;53.540;10.224;2023-06-14T16:24:32;5.33;;;2.27;;
5491;SDS011;2768;53.540;10.224;2023-06-14T16:30:26;4.30;;;1.90;;
5491;SDS011;2768;53.540;10.224;2023-06-14T16:36:23;3.97;;;2.50;;
5491;SDS011;2768;53.540;10.224;2023-06-14T16:42:16;6.23;;;2.20;;
5491;SDS011;2768;53.540;10.224;2023-06-14T16:48:09;2.83;;;2.10;;
5491;SDS011;2768;53.540;10.224;2023-06-14T16:54:04;2.20;;;1.90;;
5491;SDS011;2768;53.540;10.224;2023-06-14T16:59:57;2.53;;;2.33;;
5491;SDS011;2768;53.540;10.224;2023-06-14T17:05:54;3.77;;;2.13;;
5491;SDS011;2768;53.540;10.224;2023-06-14T17:11:49;2.40;;;1.80;;
5491;SDS011;2768;53.540;10.224;2023-06-14T17:17:42;2.30;;;2.10;;
5491;SDS011;2768;53.540;10.224;2023-06-14T17:23:36;6.80;;;2.27;;
5491;SDS011;2768;53.540;10.224;2023-06-14T17:29:30;3.30;;;2.60;;
5491;SDS011;2768;53.540;10.224;2023-06-14T17:35:23;2.57;;;2.00;;
5491;SDS011;2768;53.540;10.224;2023-06-14T17:41:17;6.33;;;2.00;;
5491;SDS011;2768;53.540;10.224;2023-06-14T17:47:12;6.20;;;2.17;;
5491;SDS011;2768;53.540;10.224;2023-06-14T17:53:25;3.97;;;2.10;;
5491;SDS011;2768;53.540;10.224;2023-06-14T17:59:18;2.93;;;1.50;;
5491;SDS011;2768;53.540;10.224;2023-06-14T18:05:13;3.90;;;2.00;;
5491;SDS011;2768;53.540;10.224;2023-06-14T18:11:06;8.23;;;2.17;;
5491;SDS011;2768;53.540;10.224;2023-06-14T18:16:59;2.60;;;2.07;;
5491;SDS011;2768;53.540;10.224;2023-06-14T18:22:54;4.90;;;2.03;;
5491;SDS011;2768;53.540;10.224;2023-06-14T18:28:47;5.00;;;2.00;;
5491;SDS011;2768;53.540;10.224;2023-06-14T18:34:41;3.90;;;2.07;;
5491;SDS011;2768;53.540;10.224;2023-06-14T18:40:35;3.27;;;2.37;;
5491;SDS011;2768;53.540;10.224;2023-06-14T18:46:28;2.40;;;2.20;;
5491;SDS011;2768;53.540;10.224;2023-06-14T18:52:22;2.30;;;2.03;;
5491;SDS011;2768;53.540;10.224;2023-06-14T18:58:19;5.77;;;1.90;;
5491;SDS011;2768;53.540;10.224;2023-06-14T19:04:13;4.93;;;2.10;;
5491;SDS011;2768;53.540;10.224;2023-06-14T19:10:07;1.90;;;1.80;;
5491;SDS011;2768;53.540;10.224;2023-06-14T19:16:02;4.87;;;2.40;;
5491;SDS011;2768;53.540;10.224;2023-06-14T19:21:55;3.20;;;2.53;;
5491;SDS011;2768;53.540;10.224;2023-06-14T19:27:48;4.33;;;1.93;;
5491;SDS011;2768;53.540;10.224;2023-06-14T19:33:43;4.10;;;2.00;;
5491;SDS011;2768;53.540;10.224;2023-06-14T19:39:36;5.03;;;2.37;;
5491;SDS011;2768;53.540;10.224;2023-06-14T19:45:30;4.87;;;1.93;;
5491;SDS011;2768;53.540;10.224;2023-06-14T19:51:25;5.67;;;2.10;;
5491;SDS011;2768;53.540;10.224;2023-06-14T19:57:19;4.60;;;2.27;;
5491;SDS011;2768;53.540;10.224;2023-06-14T20:03:12;3.80;;;2.03;;
5491;SDS011;2768;53.540;10.224;2023-06-14T20:09:06;2.60;;;2.30;;
5491;SDS011;2768;53.540;10.224;2023-06-14T20:15:05;2.30;;;2.10;;
5491;SDS011;2768;53.540;10.224;2023-06-14T20:21:01;5.90;;;2.27;;
5491;SDS011;2768;53.540;10.224;2023-06-14T20:26:56;3.37;;;2.37;;
5491;SDS011;2768;53.540;10.224;2023-06-14T20:32:49;4.90;;;2.10;;
5491;SDS011;2768;53.540;10.224;2023-06-14T20:38:43;2.40;;;2.10;;
5491;SDS011;2768;53.540;10.224;2023-06-14T20:44:37;3.13;;;1.93;;
5491;SDS011;2768;53.540;10.224;2023-06-14T20:50:32;2.57;;;2.37;;
5491;SDS011;2768;53.540;10.224;2023-06-14T20:56:25;2.40;;;2.00;;
5491;SDS011;2768;53.540;10.224;2023-06-14T21:02:19;3.33;;;2.40;;
5491;SDS011;2768;53.540;10.224;2023-06-14T21:08:13;2.50;;;2.13;;
5491;SDS011;2768;53.540;10.224;2023-06-14T21:14:06;4.00;;;2.40;;
5491;SDS011;2768;53.540;10.224;2023-06-14T21:20:01;6.27;;;2.23;;
5491;SDS011;2768;53.540;10.224;2023-06-14T21:25:55;3.37;;;2.43;;
5491;SDS011;2768;53.540;10.224;2023-06-14T21:31:49;5.10;;;2.30;;
5491;SDS011;2768;53.540;10.224;2023-06-14T21:37:43;4.80;;;2.57;;
5491;SDS011;2768;53.540;10.224;2023-06-14T21:43:37;4.00;;;2.20;;
5491;SDS011;2768;53.540;10.224;2023-06-14T21:49:30;2.70;;;2.47;;
5491;SDS011;2768;53.540;10.224;2023-06-14T21:55:24;5.07;;;2.17;;
5491;SDS011;2768;53.540;10.224;2023-06-14T22:01:19;9.73;;;2.53;;
5491;SDS011;2768;53.540;10.224;2023-06-14T22:07:12;2.90;;;2.40;;
5491;SDS011;2768;53.540;10.224;2023-06-14T22:13:07;6.50;;;2.87;;
5491;SDS011;2768;53.540;10.224;2023-06-14T22:19:02;4.87;;;2.73;;
5491;SDS011;2768;53.540;10.224;2023-06-14T22:24:56;6.20;;;3.07;;
5491;SDS011;2768;53.540;10.224;2023-06-14T22:30:51;4.13;;;2.80;;
5491;SDS011;2768;53.540;10.224;2023-06-14T22:36:49;2.80;;;2.07;;
5491;SDS011;2768;53.540;10.224;2023-06-14T22:42:44;8.10;;;2.50;;
5491;SDS011;2768;53.540;10.224;2023-06-14T22:48:41;4.13;;;2.70;;
5491;SDS011;2768;53.540;10.224;2023-06-14T22:54:36;3.90;;;2.60;;
5491;SDS011;2768;53.540;10.224;2023-06-14T23:00:30;3.97;;;2.40;;
5491;SDS011;2768;53.540;10.224;2023-06-14T23:06:24;3.00;;;2.43;;
5491;SDS011;2768;53.540;10.224;2023-06-14T23:12:17;5.03;;;2.63;;
5491;SDS011;2768;53.540;10.224;2023-06-14T23:18:12;5.53;;;2.83;;
5491;SDS011;2768;53.540;10.224;2023-06-14T23:24:06;2.70;;;2.50;;
5491;SDS011;2768;53.540;10.224;2023-06-14T23:30:01;4.27;;;2.80;;
5491;SDS011;2768;53.540;10.224;2023-06-14T23:35:56;3.70;;;2.80;;
5491;SDS011;2768;53.540;10.224;2023-06-14T23:41:53;5.20;;;3.53;;
5491;SDS011;2768;53.540;10.224;2023-06-14T23:47:47;4.03;;;3.03;;
5491;SDS011;2768;53.540;10.224;2023-06-14T23:53:40;3.60;;;3.00;;
5491;SDS011;2768;53.540;10.224;2023-06-14T23:59:38;7.40;;;3.50;;
